createdAt,value
2018-11-02T00:02:18.768Z,4.60
2018-11-02T00:04:47.713Z,5.40
2018-11-02T00:07:31.371Z,4.87
2018-11-02T00:10:16.869Z,4.83
2018-11-02T00:12:45.793Z,5.43
2018-11-02T00:15:14.661Z,5.00
2018-11-02T00:17:43.448Z,5.30
2018-11-02T00:20:12.224Z,5.53
2018-11-02T00:22:40.950Z,5.43
2018-11-02T00:25:09.751Z,4.90
2018-11-02T00:27:38.463Z,4.33
2018-11-02T00:30:07.439Z,5.20
2018-11-02T00:32:36.273Z,5.57
2018-11-02T00:35:05.724Z,5.10
2018-11-02T00:37:34.682Z,4.93
2018-11-02T00:40:03.749Z,5.07
2018-11-02T00:42:32.489Z,4.17
2018-11-02T00:45:01.278Z,5.23
2018-11-02T00:47:30.336Z,5.13
2018-11-02T00:49:59.158Z,5.70
2018-11-02T00:52:27.934Z,4.57
2018-11-02T00:54:56.695Z,4.60
2018-11-02T00:57:25.436Z,5.13
2018-11-02T00:59:54.168Z,4.20
2018-11-02T01:02:22.866Z,3.10
2018-11-02T01:04:51.594Z,2.30
2018-11-02T01:07:20.401Z,2.33
2018-11-02T01:09:49.236Z,2.10
2018-11-02T01:12:18.128Z,2.30
2018-11-02T01:14:46.968Z,1.80
2018-11-02T01:17:15.751Z,1.60
2018-11-02T01:19:44.480Z,1.97
2018-11-02T01:22:13.242Z,1.80
2018-11-02T01:24:41.968Z,1.67
2018-11-02T01:27:10.823Z,1.70
2018-11-02T01:29:39.763Z,1.90
2018-11-02T01:32:08.576Z,2.00
2018-11-02T01:34:37.394Z,1.90
2018-11-02T01:37:06.889Z,1.90
2018-11-02T01:39:35.663Z,2.00
2018-11-02T01:42:04.551Z,2.33
2018-11-02T01:44:33.409Z,2.63
2018-11-02T01:47:02.229Z,3.43
2018-11-02T01:49:31.091Z,3.97
2018-11-02T01:51:59.881Z,3.40
2018-11-02T01:54:29.676Z,3.57
2018-11-02T01:56:59.128Z,3.30
2018-11-02T01:59:27.921Z,3.30
2018-11-02T02:01:56.744Z,3.20
2018-11-02T02:04:25.489Z,2.90
2018-11-02T02:06:54.378Z,3.33
2018-11-02T02:09:23.084Z,3.10
2018-11-02T02:11:51.844Z,3.20
2018-11-02T02:14:20.556Z,3.00
2018-11-02T02:16:49.296Z,2.93
2018-11-02T02:19:18.001Z,3.00
2018-11-02T02:21:46.708Z,3.00
2018-11-02T02:24:15.456Z,2.90
2018-11-02T02:26:44.148Z,2.60
2018-11-02T02:29:12.914Z,2.50
2018-11-02T02:31:41.711Z,3.10
2018-11-02T02:34:10.413Z,2.93
2018-11-02T02:36:39.224Z,3.10
2018-11-02T02:39:09.361Z,3.10
2018-11-02T02:41:39.098Z,2.60
2018-11-02T02:44:08.124Z,2.30
2018-11-02T02:46:36.872Z,2.90
2018-11-02T02:49:06.677Z,3.07
2018-11-02T02:51:35.441Z,2.60
2018-11-02T02:54:04.340Z,3.03
2018-11-02T02:56:33.116Z,2.77
2018-11-02T02:59:02.553Z,2.00
2018-11-02T03:01:31.281Z,1.97
2018-11-02T03:04:00.036Z,2.13
2018-11-02T03:06:28.848Z,2.27
2018-11-02T03:08:57.596Z,2.77
2018-11-02T03:11:26.324Z,1.90
2018-11-02T03:13:55.023Z,1.97
2018-11-02T03:16:23.746Z,1.97
2018-11-02T03:18:52.761Z,1.50
2018-11-02T03:21:21.456Z,1.40
2018-11-02T03:23:50.177Z,1.80
2018-11-02T03:26:18.930Z,1.67
2018-11-02T03:28:47.686Z,2.97
2018-11-02T03:31:16.443Z,3.50
2018-11-02T03:33:45.181Z,3.37
2018-11-02T03:36:13.908Z,3.60
2018-11-02T03:38:42.641Z,4.00
2018-11-02T03:41:11.348Z,4.00
2018-11-02T03:43:40.408Z,6.37
2018-11-02T03:46:09.106Z,7.40
2018-11-02T03:48:37.807Z,12.63
2018-11-02T03:51:06.532Z,19.00
2018-11-02T03:53:35.225Z,10.77
2018-11-02T03:56:03.995Z,19.07
2018-11-02T03:58:32.751Z,20.13
2018-11-02T04:01:01.573Z,22.30
2018-11-02T04:03:30.337Z,7.00
2018-11-02T04:05:59.026Z,6.20
2018-11-02T04:08:27.718Z,5.03
2018-11-02T04:10:56.815Z,3.97
2018-11-02T04:13:25.669Z,3.00
2018-11-02T04:15:54.453Z,3.20
2018-11-02T04:18:23.235Z,2.97
2018-11-02T04:20:52.093Z,2.50
2018-11-02T04:23:20.833Z,2.67
2018-11-02T04:25:49.620Z,2.70
2018-11-02T04:28:18.362Z,2.40
2018-11-02T04:30:47.271Z,2.07
2018-11-02T04:33:15.986Z,2.63
2018-11-02T04:35:44.714Z,3.17
2018-11-02T04:38:13.453Z,4.23
2018-11-02T04:40:42.203Z,4.10
2018-11-02T04:43:10.924Z,3.50
2018-11-02T04:45:40.571Z,3.00
2018-11-02T04:48:10.988Z,2.60
2018-11-02T04:50:40.485Z,2.90
2018-11-02T04:53:09.335Z,2.50
2018-11-02T04:55:38.060Z,2.77
2018-11-02T04:58:06.814Z,2.47
2018-11-02T05:00:35.575Z,2.30
2018-11-02T05:03:05.171Z,2.20
2018-11-02T05:05:33.985Z,2.13
2018-11-02T05:08:02.735Z,2.53
2018-11-02T05:10:31.553Z,2.10
2018-11-02T05:13:00.365Z,1.80
2018-11-02T05:15:29.105Z,1.60
2018-11-02T05:17:57.867Z,1.60
2018-11-02T05:20:26.605Z,1.50
2018-11-02T05:22:55.381Z,1.50
2018-11-02T05:25:24.143Z,1.33
2018-11-02T05:27:52.908Z,1.30
2018-11-02T05:30:21.731Z,1.60
2018-11-02T05:32:50.573Z,1.20
2018-11-02T05:35:19.332Z,1.20
2018-11-02T05:37:48.068Z,1.57
2018-11-02T05:40:16.773Z,1.20
2018-11-02T05:42:45.768Z,1.57
2018-11-02T05:45:14.512Z,1.63
2018-11-02T05:47:43.238Z,1.50
2018-11-02T05:50:11.977Z,1.50
2018-11-02T05:52:40.706Z,1.53
2018-11-02T05:55:10.007Z,1.37
2018-11-02T05:57:38.818Z,1.60
2018-11-02T06:00:08.563Z,1.40
2018-11-02T06:02:37.333Z,1.47
2018-11-02T06:05:06.774Z,1.57
2018-11-02T06:07:35.545Z,1.60
2018-11-02T06:10:04.413Z,1.70
2018-11-02T06:12:33.135Z,1.33
2018-11-02T06:15:01.907Z,1.70
2018-11-02T06:17:30.655Z,1.57
2018-11-02T06:19:59.437Z,1.63
2018-11-02T06:22:28.216Z,1.70
2018-11-02T06:24:57.029Z,1.63
2018-11-02T06:27:26.233Z,1.70
2018-11-02T06:29:54.971Z,2.00
2018-11-02T06:32:24.874Z,2.20
2018-11-02T06:34:54.026Z,2.20
2018-11-02T06:37:22.820Z,1.93
2018-11-02T06:39:51.883Z,2.20
2018-11-02T06:42:20.727Z,1.63
2018-11-02T06:44:49.475Z,1.77
2018-11-02T06:47:18.683Z,1.77
2018-11-02T06:49:47.398Z,1.53
2018-11-02T06:52:16.102Z,2.00
2018-11-02T06:54:44.964Z,2.00
2018-11-02T06:57:13.846Z,2.40
2018-11-02T06:59:42.907Z,3.57
2018-11-02T07:02:11.596Z,3.30
2018-11-02T07:04:40.356Z,3.90
2018-11-02T07:07:09.296Z,2.83
2018-11-02T07:09:38.093Z,2.80
2018-11-02T07:12:06.956Z,3.10
2018-11-02T07:14:35.788Z,2.70
2018-11-02T07:17:04.701Z,2.40
2018-11-02T07:19:34.539Z,2.70
2018-11-02T07:22:03.321Z,5.20
2018-11-02T07:24:32.149Z,4.27
2018-11-02T07:27:00.920Z,3.40
2018-11-02T07:29:29.780Z,3.00
2018-11-02T07:31:58.645Z,2.90
2018-11-02T07:34:27.523Z,2.50
2018-11-02T07:36:56.264Z,3.00
2018-11-02T07:39:25.056Z,2.80
2018-11-02T07:41:53.858Z,2.50
2018-11-02T07:44:23.338Z,2.90
2018-11-02T07:46:52.135Z,2.63
2018-11-02T07:49:20.896Z,2.20
2018-11-02T07:51:49.649Z,2.23
2018-11-02T07:54:18.483Z,2.63
2018-11-02T07:56:47.226Z,2.10
2018-11-02T07:59:16.018Z,2.40
2018-11-02T08:01:45.375Z,2.13
2018-11-02T08:04:14.134Z,2.33
2018-11-02T08:06:42.941Z,2.67
2018-11-02T08:09:13.241Z,3.60
2018-11-02T08:11:42.618Z,2.70
2018-11-02T08:14:11.521Z,2.50
2018-11-02T08:16:40.726Z,2.40
2018-11-02T08:19:09.599Z,2.40
2018-11-02T08:21:38.348Z,2.37
2018-11-02T08:24:07.159Z,2.40
2018-11-02T08:26:35.915Z,2.00
2018-11-02T08:29:05.808Z,2.00
2018-11-02T08:31:34.620Z,2.50
2018-11-02T08:34:03.361Z,2.60
2018-11-02T08:36:32.186Z,2.30
2018-11-02T08:39:00.934Z,2.70
2018-11-02T08:41:29.643Z,2.20
2018-11-02T08:43:58.413Z,2.40
2018-11-02T08:46:27.163Z,2.37
2018-11-02T08:48:55.873Z,2.70
2018-11-02T08:51:24.569Z,2.30
2018-11-02T08:53:53.249Z,2.00
2018-11-02T08:56:22.077Z,2.03
2018-11-02T08:58:51.028Z,2.07
2018-11-02T09:01:19.724Z,1.80
2018-11-02T09:03:48.501Z,2.10
2018-11-02T09:06:17.315Z,2.23
2018-11-02T09:08:46.129Z,2.57
2018-11-02T09:11:14.929Z,1.90
2018-11-02T09:13:43.761Z,1.90
2018-11-02T09:16:12.519Z,1.70
2018-11-02T09:18:41.350Z,1.93
2018-11-02T09:21:10.099Z,1.40
2018-11-02T09:23:39.296Z,1.70
2018-11-02T09:26:08.085Z,1.57
2018-11-02T09:28:36.784Z,1.60
2018-11-02T09:31:05.672Z,2.90
2018-11-02T09:33:34.389Z,2.67
2018-11-02T09:36:03.177Z,2.47
2018-11-02T09:38:31.884Z,2.33
2018-11-02T09:41:00.644Z,3.00
2018-11-02T09:43:29.401Z,2.33
2018-11-02T09:45:58.209Z,2.43
2018-11-02T09:48:27.081Z,2.50
2018-11-02T09:50:55.913Z,1.90
2018-11-02T09:53:24.736Z,1.80
2018-11-02T09:55:54.414Z,2.00
2018-11-02T09:58:23.273Z,1.80
2018-11-02T10:00:52.537Z,1.70
2018-11-02T10:03:21.023Z,2.00
2018-11-02T10:05:49.909Z,3.20
2018-11-02T10:08:18.708Z,3.05
2018-11-02T10:10:47.494Z,3.10
2018-11-02T10:13:16.296Z,2.23
2018-11-02T10:15:45.044Z,2.85
2018-11-02T10:18:13.824Z,3.07
2018-11-02T10:20:42.541Z,3.00
2018-11-02T10:23:11.328Z,2.83
2018-11-02T10:25:40.361Z,3.10
2018-11-02T10:28:09.333Z,3.25
2018-11-02T10:30:38.216Z,2.97
2018-11-02T10:33:07.171Z,2.83
2018-11-02T10:35:36.208Z,2.60
2018-11-02T10:38:05.189Z,3.77
2018-11-02T10:40:35.329Z,4.53
2018-11-02T10:43:09.382Z,2.10
2018-11-02T10:45:42.213Z,2.35
2018-11-02T10:48:11.025Z,1.70
2018-11-02T10:50:39.861Z,2.30
2018-11-02T10:53:09.689Z,2.73
2018-11-02T10:55:38.519Z,2.45
2018-11-02T10:58:07.396Z,1.57
2018-11-02T11:00:41.940Z,1.17
2018-11-02T11:03:10.752Z,1.50
2018-11-02T11:05:39.609Z,1.62
2018-11-02T11:08:09.267Z,1.50
2018-11-02T11:10:38.038Z,1.70
2018-11-02T11:13:07.639Z,1.90
2018-11-02T11:15:36.194Z,1.92
2018-11-02T11:18:05.613Z,1.77
2018-11-02T11:20:34.458Z,1.70
2018-11-02T11:23:03.344Z,2.35
2018-11-02T11:25:32.241Z,1.70
2018-11-02T11:28:01.086Z,1.90
2018-11-02T11:30:29.956Z,2.83
2018-11-02T11:32:58.743Z,1.93
2018-11-02T11:35:27.586Z,2.42
2018-11-02T11:37:56.413Z,2.37
2018-11-02T11:40:25.658Z,1.93
2018-11-02T11:42:54.526Z,1.83
2018-11-02T11:45:23.359Z,1.67
2018-11-02T11:47:52.188Z,2.17
2018-11-02T11:50:22.766Z,2.13
2018-11-02T11:52:52.669Z,2.00
2018-11-02T11:55:21.463Z,2.50
2018-11-02T11:57:50.906Z,2.60
2018-11-02T12:00:21.078Z,2.40
2018-11-02T12:02:50.355Z,2.23
2018-11-02T12:05:20.493Z,2.20
2018-11-02T12:07:49.518Z,2.07
2018-11-02T12:10:24.023Z,2.30
2018-11-02T12:12:53.321Z,2.03
2018-11-02T12:15:23.009Z,2.50
2018-11-02T12:17:51.913Z,2.80
2018-11-02T12:20:24.521Z,2.20
2018-11-02T12:22:55.788Z,2.30
2018-11-02T12:25:24.818Z,2.67
2018-11-02T12:27:53.695Z,2.00
2018-11-02T12:30:22.503Z,22.57
2018-11-02T12:32:51.293Z,4.20
2018-11-02T12:35:20.888Z,5.30
2018-11-02T12:37:50.880Z,2.70
2018-11-02T12:40:21.676Z,2.70
2018-11-02T12:42:51.458Z,2.50
2018-11-02T12:45:21.141Z,2.80
2018-11-02T12:47:50.035Z,2.33
2018-11-02T12:50:22.879Z,2.08
2018-11-02T12:52:52.963Z,1.77
2018-11-02T12:55:22.660Z,2.22
2018-11-02T12:57:51.590Z,2.37
2018-11-02T13:00:22.688Z,2.50
2018-11-02T13:02:52.194Z,1.83
2018-11-02T13:05:20.966Z,1.90
2018-11-02T13:07:50.716Z,2.67
2018-11-02T13:10:20.636Z,2.80
2018-11-02T13:12:49.462Z,3.10
2018-11-02T13:15:20.334Z,2.23
2018-11-02T13:17:50.376Z,2.40
2018-11-02T13:20:19.266Z,2.33
2018-11-02T13:22:49.625Z,2.60
2018-11-02T13:25:19.730Z,2.87
2018-11-02T13:27:49.304Z,2.67
2018-11-02T13:30:18.393Z,2.60
2018-11-02T13:32:47.665Z,2.87
2018-11-02T13:35:17.731Z,2.55
2018-11-02T13:37:47.018Z,2.40
2018-11-02T13:40:16.936Z,2.57
2018-11-02T13:42:45.873Z,2.90
2018-11-02T13:45:16.947Z,2.57
2018-11-02T13:47:45.827Z,2.70
2018-11-02T13:50:14.719Z,2.58
2018-11-02T13:52:44.674Z,2.83
2018-11-02T13:55:13.728Z,2.30
2018-11-02T13:57:42.873Z,9.00
2018-11-02T14:00:19.403Z,2.43
2018-11-02T14:02:48.181Z,2.25
2018-11-02T14:05:17.580Z,1.80
2018-11-02T14:07:47.342Z,1.90
2018-11-02T14:10:16.129Z,1.60
2018-11-02T14:12:44.917Z,1.83
2018-11-02T14:15:15.010Z,1.47
2018-11-02T14:17:44.059Z,1.60
2018-11-02T14:20:13.731Z,1.53
2018-11-02T14:22:42.564Z,4.78
2018-11-02T14:25:13.651Z,1.50
2018-11-02T14:27:42.378Z,2.70
2018-11-02T14:30:13.148Z,3.40
2018-11-02T14:32:41.944Z,1.80
2018-11-02T14:35:10.796Z,3.03
2018-11-02T14:37:40.408Z,1.70
2018-11-02T14:40:10.219Z,2.07
2018-11-02T14:42:39.871Z,1.90
2018-11-02T14:45:12.944Z,1.47
2018-11-02T14:47:42.106Z,1.60
2018-11-02T14:50:11.549Z,1.47
2018-11-02T14:52:40.336Z,1.33
2018-11-02T14:55:09.656Z,1.60
2018-11-02T14:57:38.843Z,1.50
2018-11-02T15:00:10.529Z,1.70
2018-11-02T15:02:40.003Z,1.60
2018-11-02T15:05:11.301Z,4.27
2018-11-02T15:07:40.834Z,2.00
2018-11-02T15:10:09.904Z,2.30
2018-11-02T15:12:39.327Z,2.73
2018-11-02T15:15:09.027Z,1.53
2018-11-02T15:17:38.138Z,1.70
2018-11-02T15:20:10.067Z,1.60
2018-11-02T15:22:38.939Z,1.43
2018-11-02T15:25:08.188Z,2.43
2018-11-02T15:27:37.982Z,1.90
2018-11-02T15:30:10.300Z,1.83
2018-11-02T15:32:39.681Z,1.50
2018-11-02T15:35:09.491Z,1.90
2018-11-02T15:37:38.246Z,1.67
2018-11-02T15:40:09.301Z,1.83
2018-11-02T15:42:38.586Z,1.50
2018-11-02T15:45:10.293Z,1.40
2018-11-02T15:47:39.197Z,1.17
2018-11-02T15:50:09.391Z,1.50
2018-11-02T15:52:38.693Z,1.40
2018-11-02T15:55:08.809Z,1.30
2018-11-02T15:57:37.888Z,1.27
2018-11-02T16:00:12.317Z,1.40
2018-11-02T16:02:41.771Z,1.50
2018-11-02T16:05:10.834Z,4.03
2018-11-02T16:07:39.908Z,4.47
2018-11-02T16:10:10.035Z,6.07
2018-11-02T16:12:39.097Z,3.83
2018-11-02T16:15:09.332Z,3.20
2018-11-02T16:17:39.278Z,3.50
2018-11-02T16:20:11.807Z,4.23
2018-11-02T16:22:40.968Z,9.77
2018-11-02T16:25:09.782Z,13.47
2018-11-02T16:27:39.269Z,6.37
2018-11-02T16:30:09.634Z,7.13
2018-11-02T16:32:38.318Z,4.53
2018-11-02T16:35:09.049Z,7.83
2018-11-02T16:37:37.901Z,10.10
2018-11-02T16:40:10.959Z,9.60
2018-11-02T16:42:39.855Z,8.30
2018-11-02T16:45:10.649Z,13.20
2018-11-02T16:47:39.831Z,8.90
2018-11-02T16:50:10.148Z,10.83
2018-11-02T16:52:39.111Z,12.23
2018-11-02T16:55:08.396Z,9.20
2018-11-02T16:57:37.386Z,8.70
2018-11-02T17:00:16.852Z,6.53
2018-11-02T17:02:46.820Z,5.73
2018-11-02T17:05:16.836Z,9.87
2018-11-02T17:07:45.767Z,8.17
2018-11-02T17:10:15.196Z,9.20
2018-11-02T17:12:44.416Z,11.13
2018-11-02T17:15:13.691Z,11.63
2018-11-02T17:17:42.552Z,13.53
2018-11-02T17:20:13.953Z,7.97
2018-11-02T17:22:42.789Z,6.60
2018-11-02T17:25:12.522Z,7.23
2018-11-02T17:27:41.411Z,6.17
2018-11-02T17:30:14.859Z,7.50
2018-11-02T17:32:43.711Z,6.40
2018-11-02T17:35:12.539Z,5.90
2018-11-02T17:37:41.383Z,4.53
2018-11-02T17:40:12.570Z,4.47
2018-11-02T17:42:42.207Z,7.00
2018-11-02T17:45:12.831Z,4.90
2018-11-02T17:47:42.315Z,14.73
2018-11-02T17:50:12.606Z,11.77
2018-11-02T17:52:41.416Z,12.97
2018-11-02T17:55:10.236Z,10.60
2018-11-02T17:57:39.832Z,12.40
2018-11-02T18:00:10.908Z,11.40
2018-11-02T18:02:39.839Z,11.87
2018-11-02T18:05:09.309Z,13.80
2018-11-02T18:07:38.141Z,16.53
2018-11-02T18:10:09.865Z,20.40
2018-11-02T18:12:40.606Z,21.23
2018-11-02T18:15:11.156Z,23.50
2018-11-02T18:17:40.774Z,24.80
2018-11-02T18:20:12.400Z,24.30
2018-11-02T18:22:41.196Z,22.47
2018-11-02T18:25:10.298Z,18.37
2018-11-02T18:27:39.488Z,20.83
2018-11-02T18:30:09.861Z,16.00
2018-11-02T18:32:39.024Z,14.97
2018-11-02T18:35:09.977Z,13.83
2018-11-02T18:37:39.201Z,11.30
2018-11-02T18:40:10.656Z,11.30
2018-11-02T18:42:39.434Z,9.90
2018-11-02T18:45:11.252Z,10.53
2018-11-02T18:47:43.798Z,11.27
2018-11-02T18:50:13.926Z,13.73
2018-11-02T18:52:42.681Z,12.60
2018-11-02T18:55:11.535Z,12.37
2018-11-02T18:57:40.419Z,18.40
2018-11-02T19:00:11.616Z,12.47
2018-11-02T19:02:41.573Z,11.73
2018-11-02T19:05:13.169Z,10.57
2018-11-02T19:07:42.037Z,24.73
2018-11-02T19:10:11.706Z,9.80
2018-11-02T19:12:42.029Z,23.00
2018-11-02T19:15:13.566Z,14.33
2018-11-02T19:17:42.829Z,16.37
2018-11-02T19:20:12.372Z,13.03
2018-11-02T19:22:41.193Z,12.53
2018-11-02T19:25:11.474Z,10.20
2018-11-02T19:27:40.707Z,12.37
2018-11-02T19:30:11.407Z,14.33
2018-11-02T19:32:40.198Z,15.60
2018-11-02T19:35:10.880Z,14.90
2018-11-02T19:37:39.919Z,20.73
2018-11-02T19:40:11.410Z,23.23
2018-11-02T19:42:40.157Z,22.30
2018-11-02T19:45:10.883Z,20.57
2018-11-02T19:47:46.183Z,21.83
2018-11-02T19:50:19.836Z,18.23
2018-11-02T19:52:48.632Z,18.97
2018-11-02T19:55:18.335Z,20.43
2018-11-02T19:57:47.213Z,19.83
2018-11-02T20:00:16.804Z,16.47
2018-11-02T20:02:45.631Z,13.00
2018-11-02T20:05:16.530Z,13.63
2018-11-02T20:07:46.071Z,14.23
2018-11-02T20:10:16.349Z,14.07
2018-11-02T20:12:46.741Z,15.07
2018-11-02T20:15:16.713Z,15.23
2018-11-02T20:17:45.920Z,16.73
2018-11-02T20:20:15.659Z,16.97
2018-11-02T20:22:44.693Z,17.50
2018-11-02T20:25:15.270Z,16.77
2018-11-02T20:27:44.702Z,25.83
2018-11-02T20:30:16.261Z,22.80
2018-11-02T20:32:45.308Z,17.40
2018-11-02T20:35:14.554Z,14.03
2018-11-02T20:37:43.463Z,18.93
2018-11-02T20:40:16.695Z,19.50
2018-11-02T20:42:46.791Z,20.03
2018-11-02T20:45:17.135Z,20.87
2018-11-02T20:47:54.218Z,20.00
2018-11-02T20:50:24.979Z,51.13
2018-11-02T20:52:53.961Z,18.03
2018-11-02T20:55:22.961Z,19.90
2018-11-02T20:57:52.577Z,16.33
2018-11-02T21:00:23.708Z,15.60
2018-11-02T21:02:53.042Z,18.70
2018-11-02T21:05:22.862Z,18.00
2018-11-02T21:07:52.391Z,23.57
2018-11-02T21:10:22.424Z,22.87
2018-11-02T21:12:51.245Z,21.40
2018-11-02T21:15:22.355Z,19.63
2018-11-02T21:17:51.646Z,18.17
2018-11-02T21:20:21.949Z,16.30
2018-11-02T21:22:50.801Z,16.63
2018-11-02T21:25:19.761Z,18.00
2018-11-02T21:27:48.941Z,18.27
2018-11-02T21:30:20.094Z,15.93
2018-11-02T21:32:49.504Z,17.20
2018-11-02T21:35:18.987Z,16.93
2018-11-02T21:37:48.723Z,15.73
2018-11-02T21:40:20.767Z,15.87
2018-11-02T21:42:49.573Z,10.83
2018-11-02T21:45:20.183Z,9.37
2018-11-02T21:47:49.026Z,8.50
2018-11-02T21:50:18.308Z,7.13
2018-11-02T21:52:47.166Z,8.13
2018-11-02T21:55:23.876Z,5.70
2018-11-02T21:57:52.951Z,5.83
2018-11-02T22:00:22.537Z,6.23
2018-11-02T22:02:51.453Z,6.67
2018-11-02T22:05:20.461Z,8.13
2018-11-02T22:07:49.998Z,6.73
2018-11-02T22:10:19.010Z,5.50
2018-11-02T22:12:47.822Z,5.40
2018-11-02T22:15:16.728Z,5.30
2018-11-02T22:17:45.466Z,5.07
2018-11-02T22:20:15.033Z,14.40
2018-11-02T22:22:43.808Z,73.30
2018-11-02T22:25:13.370Z,9.90
2018-11-02T22:27:42.171Z,7.40
2018-11-02T22:30:13.908Z,5.80
2018-11-02T22:32:42.836Z,8.90
2018-11-02T22:35:13.029Z,6.70
2018-11-02T22:37:42.214Z,6.60
2018-11-02T22:40:11.841Z,6.53
2018-11-02T22:42:41.836Z,7.13
2018-11-02T22:45:12.713Z,7.30
2018-11-02T22:47:46.895Z,6.70
2018-11-02T22:50:15.767Z,8.17
2018-11-02T22:52:44.581Z,7.40
2018-11-02T22:55:13.436Z,8.20
2018-11-02T22:57:42.236Z,6.33
2018-11-02T23:00:15.433Z,7.00
2018-11-02T23:02:45.384Z,5.30
2018-11-02T23:05:14.301Z,5.60
2018-11-02T23:07:43.528Z,6.47
2018-11-02T23:10:12.456Z,5.80
2018-11-02T23:12:41.655Z,6.07
2018-11-02T23:15:11.338Z,5.93
2018-11-02T23:17:40.269Z,7.20
2018-11-02T23:20:12.078Z,6.80
2018-11-02T23:22:40.916Z,6.80
2018-11-02T23:25:10.597Z,7.20
2018-11-02T23:27:40.495Z,7.00
2018-11-02T23:30:10.171Z,6.00
2018-11-02T23:32:39.045Z,5.43
2018-11-02T23:35:08.333Z,5.90
2018-11-02T23:37:37.231Z,5.27
2018-11-02T23:40:07.086Z,5.57
2018-11-02T23:42:35.835Z,6.40
2018-11-02T23:45:05.497Z,5.93
2018-11-02T23:47:34.206Z,6.10
2018-11-02T23:50:03.073Z,5.77
2018-11-02T23:52:31.881Z,6.90
2018-11-02T23:55:01.571Z,6.10
2018-11-02T23:57:30.370Z,6.07
2018-11-02T23:59:59.230Z,6.07
